Time;durP1;ratioP1;P1;durP2;ratioP2;P2;SDS_P1;SDS_P2;PMS_P1;PMS_P2;Temp;Humidity;BMP_temperature;BMP_pressure;BME280_temperature;BME280_humidity;BME280_pressure;Samples;Min_cycle;Max_cycle;Signal;HPM_P1;HPM_P2
2022/04/28 00:02:16;;;;;;;4.00;2.70;;;8.10;99.90;;;8.92;100.00;99013.84;5059696;28;20511;-74
2022/04/28 00:04:47;;;;;;;3.73;3.30;;;8.10;99.90;;;8.86;100.00;99016.25;5058091;28;20458;-74
2022/04/28 00:07:16;;;;;;;5.20;3.47;;;8.00;99.90;;;8.86;100.00;99018.84;5059073;28;20498;-74
2022/04/28 00:09:47;;;;;;;4.97;3.30;;;8.00;99.90;;;8.86;100.00;99018.84;5059429;28;20460;-74
2022/04/28 00:12:18;;;;;;;5.17;3.50;;;8.00;99.90;;;8.72;100.00;99022.00;5059105;28;20971;-74
2022/04/28 00:14:49;;;;;;;6.83;3.53;;;8.00;99.90;;;8.73;100.00;99023.66;5059640;28;21049;-74
2022/04/28 00:17:19;;;;;;;5.40;3.47;;;8.00;99.90;;;8.68;100.00;99020.69;5057989;28;20538;-75
2022/04/28 00:19:50;;;;;;;6.20;3.70;;;7.90;99.90;;;8.61;100.00;99025.66;5057940;28;20488;-75
2022/04/28 00:22:23;;;;;;;5.47;3.60;;;7.90;99.90;;;8.57;100.00;99019.94;5058726;28;20501;-75
2022/04/28 00:24:53;;;;;;;3.47;3.17;;;7.70;99.90;;;8.61;100.00;99030.09;5058373;28;20464;-74
2022/04/28 00:27:22;;;;;;;4.67;3.53;;;7.70;99.90;;;8.63;100.00;99023.75;5056341;28;20463;-75
2022/04/28 00:29:52;;;;;;;3.97;3.50;;;7.70;99.90;;;8.64;100.00;99030.59;5058371;28;20771;-74
2022/04/28 00:32:21;;;;;;;5.10;4.30;;;7.70;99.90;;;8.62;100.00;99029.91;5059860;28;20888;-74
2022/04/28 00:34:53;;;;;;;7.07;3.93;;;7.80;99.90;;;8.54;100.00;99028.06;5057716;28;20541;-74
2022/04/28 00:37:23;;;;;;;5.43;3.47;;;7.70;99.90;;;8.58;100.00;99026.78;5058012;28;20876;-74
2022/04/28 00:39:53;;;;;;;4.20;3.17;;;7.60;99.90;;;8.62;100.00;99016.06;5058820;28;20523;-74
2022/04/28 00:42:29;;;;;;;5.17;3.53;;;7.60;99.90;;;8.61;100.00;99027.47;5057876;28;20464;-74
2022/04/28 00:44:58;;;;;;;4.47;3.20;;;7.60;99.90;;;8.55;100.00;99021.88;5057666;28;20518;-75
2022/04/28 00:53:05;;;;;;;5.00;3.50;;;7.60;99.90;;;8.29;100.00;99021.00;5057568;28;20534;-75
2022/04/28 00:55:34;;;;;;;7.07;3.87;;;7.60;99.90;;;8.24;100.00;99028.41;5058035;28;20460;-74
2022/04/28 00:58:04;;;;;;;9.30;4.13;;;7.50;99.90;;;8.24;100.00;99022.34;5056404;28;20564;-74
2022/04/28 01:00:35;;;;;;;7.20;4.20;;;7.50;99.90;;;8.20;100.00;99024.44;5057977;28;20480;-74
2022/04/28 01:03:05;;;;;;;5.13;3.27;;;7.40;99.90;;;8.10;100.00;99023.69;5057036;28;20639;-74
2022/04/28 01:05:36;;;;;;;6.37;3.60;;;7.40;99.90;;;8.01;100.00;99028.00;5058440;28;20474;-75
2022/04/28 01:08:06;;;;;;;5.20;3.63;;;7.40;99.90;;;8.00;100.00;99022.94;5058184;28;20465;-74
2022/04/28 01:10:37;;;;;;;9.60;3.70;;;7.40;99.90;;;8.04;100.00;99019.91;5059014;28;20577;-74
2022/04/28 01:13:07;;;;;;;5.80;3.90;;;7.30;99.90;;;8.09;100.00;99020.25;5056664;28;20542;-75
2022/04/28 01:15:43;;;;;;;4.13;3.47;;;7.20;99.90;;;8.09;100.00;99025.47;5057579;28;21058;-74
2022/04/28 01:18:14;;;;;;;6.33;3.53;;;7.30;99.90;;;8.07;100.00;99021.38;5054917;28;20461;-74
2022/04/28 01:20:45;;;;;;;6.77;3.57;;;7.30;99.90;;;8.09;100.00;99022.03;5060533;28;21118;-74
2022/04/28 01:23:18;;;;;;;6.40;3.73;;;7.20;99.90;;;8.06;100.00;99030.16;5059141;28;20511;-74
2022/04/28 01:25:47;;;;;;;7.47;3.43;;;7.30;99.90;;;8.05;100.00;99034.53;5057666;28;20488;-75
2022/04/28 01:28:17;;;;;;;4.53;3.57;;;7.20;99.90;;;8.02;100.00;99034.00;5057011;28;20549;-74
2022/04/28 01:30:48;;;;;;;5.30;3.77;;;7.20;99.90;;;8.00;100.00;99035.94;5058351;28;20483;-74
2022/04/28 01:33:18;;;;;;;6.83;4.17;;;7.10;99.90;;;8.02;100.00;99039.22;5056390;28;20475;-74
2022/04/28 01:35:49;;;;;;;4.33;3.90;;;7.10;99.90;;;7.98;100.00;99032.69;5059265;28;20460;-74
2022/04/28 01:38:20;;;;;;;5.40;3.60;;;7.10;99.90;;;7.99;100.00;99044.72;5058015;28;20525;-74
2022/04/28 01:40:50;;;;;;;4.00;3.10;;;7.10;99.90;;;8.01;100.00;99043.63;5057161;28;20850;-74
2022/04/28 01:43:20;;;;;;;4.87;3.10;;;7.10;99.90;;;7.95;100.00;99033.78;5056299;28;20469;-74
2022/04/28 01:45:50;;;;;;;4.57;3.60;;;7.00;99.90;;;7.86;100.00;99034.66;5060163;28;21043;-74
2022/04/28 01:48:21;;;;;;;5.77;3.80;;;7.10;99.90;;;7.91;100.00;99048.06;5055435;28;20465;-74
2022/04/28 01:56:28;;;;;;;5.67;3.57;;;7.00;99.90;;;7.85;100.00;99040.00;5059658;28;20453;-74
2022/04/28 01:58:59;;;;;;;5.40;3.50;;;6.90;99.90;;;7.85;100.00;99042.59;5060090;28;20519;-74
2022/04/28 02:01:30;;;;;;;7.10;3.90;;;6.80;99.90;;;7.80;100.00;99040.47;5057367;28;20863;-75
2022/04/28 02:04:01;;;;;;;5.00;3.90;;;6.90;99.90;;;7.71;100.00;99041.31;5059970;28;20513;-74
2022/04/28 02:06:31;;;;;;;12.07;4.83;;;6.80;99.90;;;7.75;100.00;99032.25;5059309;28;20436;-74
2022/04/28 02:09:04;;;;;;;9.43;3.93;;;6.80;99.90;;;7.72;100.00;99036.94;5057694;28;20463;-74
2022/04/28 02:11:33;;;;;;;9.37;4.20;;;6.80;99.90;;;7.68;100.00;99041.59;5060911;28;20515;-74
2022/04/28 02:14:03;;;;;;;5.80;3.93;;;6.90;99.90;;;7.69;100.00;99032.00;5059902;28;21193;-75
2022/04/28 02:16:34;;;;;;;5.93;3.77;;;6.80;99.90;;;7.57;100.00;99040.00;5062442;28;20469;-74
2022/04/28 02:19:04;;;;;;;5.07;3.73;;;6.80;99.90;;;7.55;100.00;99036.72;5060479;28;20468;-74
2022/04/28 02:21:33;;;;;;;4.60;4.17;;;6.70;99.90;;;7.59;100.00;99039.88;5063150;28;20498;-74
2022/04/28 02:24:03;;;;;;;4.77;3.40;;;6.70;99.90;;;7.51;100.00;99047.56;5059402;28;20464;-75
2022/04/28 02:26:33;;;;;;;7.07;3.97;;;6.70;99.90;;;7.53;100.00;99049.06;5061011;28;21219;-74
2022/04/28 02:29:02;;;;;;;5.13;3.37;;;6.70;99.90;;;7.54;100.00;99052.47;5060578;28;21146;-74
2022/04/28 02:31:32;;;;;;;6.37;4.00;;;6.70;99.90;;;7.56;100.00;99048.78;5060365;28;20514;-74
2022/04/28 02:34:01;;;;;;;6.03;3.63;;;6.60;99.90;;;7.53;100.00;99054.25;5059541;28;20531;-74
2022/04/28 02:36:31;;;;;;;6.00;3.70;;;6.70;99.90;;;7.56;100.00;99051.41;5060939;28;20822;-74
2022/04/28 02:39:02;;;;;;;9.10;4.27;;;6.60;99.90;;;7.56;100.00;99053.16;5059925;28;20455;-74
2022/04/28 02:41:31;;;;;;;5.80;3.70;;;6.60;99.90;;;7.51;100.00;99053.59;5059569;28;20858;-74
2022/04/28 02:44:02;;;;;;;5.17;3.53;;;6.60;99.90;;;7.48;100.00;99051.28;5060874;28;20476;-75
2022/04/28 02:46:32;;;;;;;10.23;3.73;;;6.60;99.90;;;7.44;100.00;99049.91;5062049;28;20457;-74
2022/04/28 02:49:03;;;;;;;4.80;3.47;;;6.60;99.90;;;7.45;100.00;99054.16;5057612;28;20483;-74
2022/04/28 02:51:33;;;;;;;16.50;4.20;;;6.60;99.90;;;7.46;100.00;99050.59;5061548;28;20485;-74
2022/04/28 02:54:05;;;;;;;6.47;3.87;;;6.50;99.90;;;7.48;100.00;99061.69;5060926;28;20472;-74
2022/04/28 02:56:35;;;;;;;4.07;3.60;;;6.60;99.90;;;7.49;100.00;99052.09;5062040;28;20476;-74
2022/04/28 02:59:05;;;;;;;7.17;4.30;;;6.50;99.90;;;7.46;100.00;99058.38;5062408;28;20970;-74
2022/04/28 03:01:36;;;;;;;5.40;3.47;;;6.60;99.90;;;7.46;100.00;99057.59;5059767;28;20921;-74
2022/04/28 03:04:07;;;;;;;3.90;3.50;;;6.50;99.90;;;7.40;100.00;99056.38;5062930;28;20455;-74
2022/04/28 03:12:12;;;;;;;4.23;3.40;;;6.50;99.90;;;7.31;100.00;99053.78;5059815;28;20478;-74
2022/04/28 03:14:42;;;;;;;5.00;4.03;;;6.50;99.90;;;7.33;100.00;99057.06;5060321;28;20503;-74
2022/04/28 03:17:12;;;;;;;4.40;4.00;;;6.40;99.90;;;7.34;100.00;99059.53;5061378;28;20464;-74
2022/04/28 03:19:42;;;;;;;4.80;4.13;;;6.40;99.90;;;7.32;100.00;99056.28;5059143;28;20810;-74
2022/04/28 03:22:12;;;;;;;5.73;4.00;;;6.40;99.90;;;7.21;100.00;99060.81;5058723;28;20500;-80
2022/04/28 03:24:43;;;;;;;4.73;3.50;;;6.50;99.90;;;7.21;100.00;99056.44;5060600;28;20470;-74
2022/04/28 03:27:13;;;;;;;4.13;3.73;;;6.40;99.90;;;7.22;100.00;99060.66;5057874;28;20445;-74
2022/04/28 03:29:44;;;;;;;6.80;3.77;;;6.40;99.90;;;7.23;100.00;99059.69;5060069;28;20900;-74
2022/04/28 03:32:14;;;;;;;7.43;4.60;;;6.30;99.90;;;7.18;100.00;99059.31;5060951;28;20517;-75
2022/04/28 03:34:44;;;;;;;4.57;3.80;;;6.40;99.90;;;7.18;100.00;99071.50;5059696;28;20496;-74
2022/04/28 03:37:15;;;;;;;11.03;4.47;;;6.30;99.90;;;7.18;100.00;99063.69;5061089;28;20881;-74
2022/04/28 03:39:44;;;;;;;6.60;4.00;;;6.30;99.90;;;7.15;100.00;99074.38;5059988;28;20494;-74
2022/04/28 03:42:17;;;;;;;7.50;4.37;;;6.20;99.90;;;7.14;100.00;99063.16;5061319;28;20591;-74
2022/04/28 03:44:48;;;;;;;12.73;4.40;;;6.20;99.90;;;7.14;100.00;99068.34;5061187;28;20449;-74
2022/04/28 03:47:19;;;;;;;4.40;3.50;;;6.20;99.90;;;7.14;100.00;99070.97;5059914;28;20816;-74
2022/04/28 03:49:50;;;;;;;7.50;4.20;;;6.20;99.90;;;7.11;100.00;99073.00;5059802;28;20538;-74
2022/04/28 03:52:19;;;;;;;4.57;3.80;;;6.20;99.90;;;7.04;100.00;99067.56;5060323;28;21017;-74
2022/04/28 03:54:55;;;;;;;6.60;4.20;;;6.30;99.90;;;6.98;100.00;99075.88;5060947;28;20439;-73
2022/04/28 03:57:24;;;;;;;4.90;4.30;;;6.20;99.90;;;6.99;100.00;99074.94;5058372;28;20495;-75
2022/04/28 03:59:56;;;;;;;4.83;3.50;;;6.20;99.90;;;6.98;100.00;99079.31;5059936;28;20467;-74
2022/04/28 04:02:25;;;;;;;5.40;4.00;;;6.10;99.90;;;6.99;100.00;99080.13;5057444;28;20494;-74
2022/04/28 04:04:56;;;;;;;7.03;4.57;;;6.10;99.90;;;6.91;100.00;99085.19;5060982;28;20460;-73
2022/04/28 04:07:29;;;;;;;4.40;4.00;;;6.10;99.90;;;6.91;100.00;99093.00;5059588;28;20970;-74
2022/04/28 04:10:00;;;;;;;5.40;4.23;;;6.10;99.90;;;6.91;100.00;99093.00;5058697;28;20471;-74
2022/04/28 04:12:30;;;;;;;5.37;3.90;;;6.10;99.90;;;6.90;100.00;99096.56;5059972;28;20456;-79
2022/04/28 04:15:00;;;;;;;8.10;4.67;;;6.00;99.90;;;6.91;100.00;99091.22;5059168;28;20456;-74
2022/04/28 04:17:30;;;;;;;4.60;4.03;;;6.00;99.90;;;6.91;100.00;99095.59;5060328;28;21004;-74
2022/04/28 04:20:04;;;;;;;7.75;4.55;;;6.00;99.90;;;6.81;100.00;99095.59;5058939;28;20519;-74
2022/04/28 04:22:35;;;;;;;4.37;3.90;;;6.00;99.90;;;6.75;100.00;99098.75;5062400;28;20245;-75
2022/04/28 04:25:07;;;;;;;5.83;4.50;;;5.90;99.90;;;6.66;100.00;99104.78;5061780;28;20465;-74
2022/04/28 04:27:37;;;;;;;10.10;4.83;;;5.90;99.90;;;6.60;100.00;99102.72;5062019;28;20967;-74
2022/04/28 04:32:58;;;;;;;6.20;4.30;;;5.80;99.90;;;6.57;100.00;99100.38;5061608;28;20440;-74
2022/04/28 04:35:27;;;;;;;6.27;4.27;;;5.70;99.90;;;6.51;100.00;99106.97;5063515;28;20468;-74
2022/04/28 04:37:57;;;;;;;5.70;4.50;;;5.80;99.90;;;6.51;100.00;99100.94;5058781;28;20454;-74
2022/04/28 04:40:27;;;;;;;5.00;3.70;;;5.80;99.90;;;6.47;100.00;99112.56;5059459;28;20484;-74
2022/04/28 04:42:56;;;;;;;8.50;4.17;;;5.80;99.90;;;6.49;100.00;99108.84;5059853;28;20920;-74
2022/04/28 04:45:27;;;;;;;8.40;4.40;;;5.70;99.90;;;6.51;100.00;99111.34;5059282;28;20458;-74
2022/04/28 04:47:56;;;;;;;8.73;4.77;;;5.70;99.90;;;6.48;100.00;99109.84;5059079;28;20447;-74
2022/04/28 04:50:26;;;;;;;6.37;4.37;;;5.70;99.90;;;6.51;100.00;99117.34;5059027;28;20449;-74
2022/04/28 04:52:54;;;;;;;5.97;4.87;;;5.70;99.90;;;6.44;100.00;99121.44;5059226;28;20455;-74
2022/04/28 04:55:25;;;;;;;5.50;4.47;;;5.70;99.90;;;6.48;100.00;99127.19;5059209;28;20500;-74
2022/04/28 04:57:56;;;;;;;6.53;4.87;;;5.60;99.90;;;6.50;100.00;99125.28;5058074;28;20469;-74
2022/04/28 05:00:26;;;;;;;6.73;3.87;;;5.60;99.90;;;6.50;100.00;99131.28;5058784;28;20474;-74
2022/04/28 05:02:56;;;;;;;4.63;3.97;;;5.60;99.90;;;6.44;100.00;99131.84;5059830;28;20493;-74
2022/04/28 05:05:26;;;;;;;5.20;4.70;;;5.60;99.90;;;6.41;100.00;99126.91;5058357;28;20440;-74
2022/04/28 05:07:55;;;;;;;9.17;4.67;;;5.70;99.90;;;6.42;100.00;99138.91;5059737;28;21018;-74
2022/04/28 05:10:25;;;;;;;8.17;5.17;;;5.70;99.90;;;6.43;100.00;99144.94;5057299;28;20489;-74
2022/04/28 05:12:58;;;;;;;6.03;4.10;;;5.70;99.90;;;6.42;100.00;99138.13;5060949;28;20818;-74
2022/04/28 05:15:28;;;;;;;9.67;5.93;;;5.70;99.90;;;6.41;100.00;99142.50;5060800;28;20801;-74
2022/04/28 05:17:57;;;;;;;10.90;4.63;;;5.70;99.90;;;6.44;100.00;99144.81;5057917;28;20463;-74
2022/04/28 05:20:29;;;;;;;4.97;3.87;;;5.70;99.90;;;6.43;100.00;99145.78;5058326;28;20447;-74
2022/04/28 05:22:58;;;;;;;8.20;5.30;;;5.80;99.90;;;6.45;100.00;99146.47;5058576;28;20543;-74
2022/04/28 05:25:29;;;;;;;11.50;5.40;;;5.80;99.90;;;6.53;100.00;99153.56;5059576;28;20451;-74
2022/04/28 05:28:00;;;;;;;7.20;4.97;;;5.80;99.90;;;6.56;100.00;99154.13;5057810;28;20452;-74
2022/04/28 05:30:30;;;;;;;7.57;4.60;;;5.80;99.90;;;6.61;100.00;99152.91;5059925;28;20517;-74
2022/04/28 05:33:02;;;;;;;13.17;5.20;;;5.80;99.90;;;6.64;100.00;99152.63;5062029;28;20460;-74
2022/04/28 05:35:32;;;;;;;6.13;4.70;;;5.80;99.90;;;6.69;100.00;99160.88;5061095;28;20465;-74
2022/04/28 05:38:03;;;;;;;9.20;5.10;;;5.80;99.90;;;6.73;100.00;99151.84;5062229;28;20486;-74
2022/04/28 05:40:33;;;;;;;5.77;5.00;;;5.90;99.90;;;6.77;100.00;99153.22;5059796;28;20453;-74
2022/04/28 05:45:52;;;;;;;5.73;4.60;;;6.00;99.90;;;6.82;100.00;99156.22;5061375;28;20432;-74
2022/04/28 05:48:23;;;;;;;6.67;5.17;;;6.00;99.90;;;6.86;100.00;99157.59;5061511;28;20472;-74
2022/04/28 05:50:53;;;;;;;11.93;5.93;;;6.10;99.90;;;6.89;100.00;99157.31;5061167;28;20474;-74
2022/04/28 05:53:23;;;;;;;7.67;5.67;;;6.10;99.90;;;6.94;100.00;99157.75;5062676;28;20459;-74
2022/04/28 05:55:53;;;;;;;7.70;5.43;;;6.10;99.90;;;7.00;100.00;99159.78;5060246;28;20981;-74
2022/04/28 05:58:25;;;;;;;8.93;5.97;;;6.20;99.90;;;7.05;100.00;99157.59;5061193;28;20445;-74
2022/04/28 06:00:54;;;;;;;7.80;5.27;;;6.20;99.90;;;7.09;100.00;99159.78;5060581;28;20946;-74
2022/04/28 06:03:24;;;;;;;7.43;5.67;;;6.30;99.90;;;7.14;100.00;99164.59;5061655;28;20517;-74
2022/04/28 06:05:55;;;;;;;7.53;5.33;;;6.30;99.90;;;7.21;100.00;99165.69;5060962;28;20451;-74
2022/04/28 06:08:26;;;;;;;6.17;5.00;;;6.40;99.90;;;7.27;100.00;99164.28;5061289;28;20522;-74
2022/04/28 06:10:57;;;;;;;8.03;5.67;;;6.40;99.90;;;7.32;100.00;99168.13;5060299;28;20439;-74
2022/04/28 06:13:29;;;;;;;45.90;6.97;;;6.50;99.90;;;7.37;100.00;99168.53;5061213;28;20624;-74
2022/04/28 06:16:00;;;;;;;7.83;5.47;;;6.50;99.90;;;7.43;100.00;99170.56;5061146;28;20448;-75
2022/04/28 06:18:30;;;;;;;9.43;5.40;;;6.60;99.90;;;7.49;100.00;99170.03;5061373;28;20494;-74
2022/04/28 06:21:00;;;;;;;7.50;5.40;;;6.60;99.90;;;7.55;100.00;99171.25;5060976;28;20453;-74
2022/04/28 06:23:30;;;;;;;6.37;4.93;;;6.70;99.90;;;7.63;100.00;99175.75;5060186;28;20486;-74
2022/04/28 06:26:00;;;;;;;8.97;5.33;;;6.80;99.90;;;7.70;100.00;99166.41;5060694;28;20870;-74
2022/04/28 06:28:32;;;;;;;6.13;5.30;;;6.90;99.90;;;7.76;100.00;99173.66;5056453;28;21449;-74
2022/04/28 06:31:02;;;;;;;13.33;5.50;;;6.90;99.90;;;7.83;100.00;99164.31;5060419;28;20436;-74
2022/04/28 06:33:32;;;;;;;8.67;5.77;;;7.00;99.90;;;7.88;100.00;99162.91;5059652;28;20532;-74
2022/04/28 06:36:01;;;;;;;7.87;5.40;;;7.10;99.90;;;7.96;100.00;99175.22;5061043;28;20445;-74
2022/04/28 06:38:30;;;;;;;16.70;5.20;;;7.10;99.90;;;8.02;100.00;99172.06;5061459;28;20511;-74
2022/04/28 06:41:01;;;;;;;10.23;5.60;;;7.20;99.90;;;8.07;100.00;99173.28;5061099;28;20452;-74
2022/04/28 06:43:33;;;;;;;7.40;5.33;;;7.20;99.90;;;8.14;100.00;99178.75;5060678;28;20515;-74
2022/04/28 06:46:16;;;;;;;7.63;5.50;;;7.30;99.90;;;8.21;100.00;99176.38;5061517;28;20479;-74
2022/04/28 06:48:47;;;;;;;9.50;5.53;;;7.40;99.90;;;8.29;100.00;99174.72;5061412;28;21095;-74
2022/04/28 06:51:17;;;;;;;8.43;5.50;;;7.50;99.90;;;8.34;100.00;99180.31;5057851;28;20463;-74
2022/04/28 06:53:51;;;;;;;11.10;5.67;;;7.50;99.90;;;8.40;100.00;99169.31;5061286;28;20529;-74
2022/04/28 06:56:39;;;;;;;8.63;5.60;;;7.60;99.90;;;8.47;100.00;99178.19;5063707;28;20479;-74
2022/04/28 06:59:12;;;;;;;6.13;4.70;;;7.70;99.90;;;8.54;100.00;99181.84;5063999;28;20448;-74
2022/04/28 07:01:43;;;;;;;7.70;5.10;;;7.70;99.90;;;8.63;100.00;99179.34;5065396;28;20490;-74
2022/04/28 07:04:16;;;;;;;8.17;5.67;;;7.80;99.90;;;8.68;100.00;99179.75;5060783;28;20503;-74
2022/04/28 07:06:45;;;;;;;6.00;4.97;;;7.90;99.90;;;8.76;100.00;99185.00;5063951;28;20817;-74
2022/04/28 07:09:21;;;;;;;8.00;6.33;;;7.90;99.90;;;8.83;100.00;99186.06;5063712;28;20487;-74
2022/04/28 07:11:50;;;;;;;6.20;4.27;;;8.00;99.90;;;8.90;100.00;99182.72;5063088;28;20526;-74
2022/04/28 07:14:22;;;;;;;8.20;5.10;;;8.10;99.90;;;8.98;100.00;99179.38;5063892;28;20470;-74
2022/04/28 07:16:52;;;;;;;8.17;5.60;;;8.20;99.90;;;9.03;100.00;99180.56;5064534;28;20440;-74
2022/04/28 07:19:23;;;;;;;7.50;5.70;;;8.30;99.90;;;9.12;100.00;99181.47;5064211;28;20817;-74
2022/04/28 07:21:52;;;;;;;13.37;5.80;;;8.40;99.90;;;9.20;100.00;99184.13;5062942;28;20433;-74
2022/04/28 07:24:21;;;;;;;10.50;6.03;;;8.50;99.90;;;9.28;100.00;99181.59;5063882;28;20518;-74
2022/04/28 07:26:51;;;;;;;8.50;5.60;;;8.60;99.90;;;9.35;100.00;99173.97;5066919;28;20441;-74
2022/04/28 07:29:22;;;;;;;8.63;5.40;;;8.60;99.90;;;9.44;100.00;99186.16;5061800;28;20465;-74
2022/04/28 07:31:52;;;;;;;9.00;4.77;;;8.70;99.90;;;9.50;100.00;99183.75;5060061;28;20567;-74
2022/04/28 07:34:22;;;;;;;5.30;4.20;;;8.90;99.90;;;9.60;100.00;99187.06;5059937;28;20823;-74
2022/04/28 07:36:52;;;;;;;6.80;4.97;;;9.00;99.90;;;9.68;100.00;99190.72;5060212;28;20500;-74
2022/04/28 07:39:22;;;;;;;8.20;3.80;;;9.10;99.90;;;9.79;100.00;99190.47;5060555;28;20472;-74
2022/04/28 07:41:53;;;;;;;6.50;5.03;;;9.20;99.90;;;9.86;100.00;99192.28;5059315;28;20443;-74
2022/04/28 07:44:24;;;;;;;5.43;3.47;;;9.30;99.90;;;9.95;100.00;99196.63;5061421;28;20545;-74
2022/04/28 07:46:56;;;;;;;13.27;4.60;;;9.40;99.90;;;10.03;100.00;99193.22;5060802;28;20826;-74
2022/04/28 07:49:27;;;;;;;5.33;4.03;;;9.50;99.90;;;10.13;100.00;99188.72;5060021;28;20474;-74
2022/04/28 07:51:56;;;;;;;7.47;4.50;;;9.50;99.90;;;10.22;100.00;99185.19;5059760;28;20500;-74
2022/04/28 07:54:27;;;;;;;5.43;4.10;;;9.70;99.90;;;10.30;100.00;99189.63;5059502;28;20545;-75
2022/04/28 07:56:56;;;;;;;5.83;3.90;;;9.80;99.90;;;10.38;100.00;99193.09;5060086;28;20470;-74
2022/04/28 07:59:28;;;;;;;8.30;3.50;;;9.80;99.90;;;10.46;100.00;99189.69;5059247;28;20814;-74
2022/04/28 08:01:58;;;;;;;10.53;4.10;;;9.90;99.90;;;10.55;100.00;99186.94;5058154;28;20505;-74
2022/04/28 08:04:28;;;;;;;6.33;4.27;;;10.10;99.90;;;10.67;100.00;99191.88;5058725;28;20491;-74
2022/04/28 08:06:58;;;;;;;15.03;3.20;;;10.20;99.90;;;10.76;100.00;99193.56;5058874;28;20496;-74
2022/04/28 08:09:27;;;;;;;4.97;3.80;;;10.20;99.90;;;10.87;100.00;99199.28;5062301;28;20437;-74
2022/04/28 08:11:57;;;;;;;4.83;3.73;;;10.40;99.90;;;11.00;100.00;99198.84;5062264;28;20458;-74
2022/04/28 08:14:30;;;;;;;5.87;3.93;;;10.50;99.90;;;11.13;100.00;99196.56;5063134;28;20492;-74
2022/04/28 08:17:01;;;;;;;8.40;4.00;;;10.60;99.90;;;11.23;100.00;99194.59;5063733;28;20436;-74
2022/04/28 08:19:32;;;;;;;5.23;3.20;;;10.70;99.90;;;11.33;100.00;99194.44;5063937;28;20454;-74
2022/04/28 08:22:01;;;;;;;5.30;3.20;;;10.90;99.90;;;11.42;100.00;99191.66;5061418;28;20512;-74
2022/04/28 08:24:31;;;;;;;5.73;3.87;;;11.00;99.90;;;11.53;100.00;99198.38;5062381;28;20570;-74
2022/04/28 08:27:02;;;;;;;4.40;3.00;;;11.10;99.90;;;11.65;100.00;99198.84;5062397;28;20486;-75
2022/04/28 08:29:32;;;;;;;5.70;3.40;;;11.20;99.90;;;11.71;100.00;99201.66;5062595;28;20953;-74
2022/04/28 08:32:02;;;;;;;4.57;3.30;;;11.30;99.90;;;11.83;100.00;99196.91;5060442;28;20576;-74
2022/04/28 08:34:31;;;;;;;5.00;3.33;;;11.40;99.90;;;11.92;100.00;99191.47;5061644;28;20939;-75
2022/04/28 08:37:02;;;;;;;4.73;3.27;;;11.50;99.90;;;12.01;100.00;99189.63;5062803;28;20452;-74
2022/04/28 08:39:32;;;;;;;4.50;3.20;;;11.50;99.90;;;12.09;100.00;99198.31;5062745;28;20465;-74
2022/04/28 08:42:03;;;;;;;3.90;2.70;;;11.60;99.90;;;12.19;100.00;99198.13;5060157;28;20941;-74
2022/04/28 08:44:34;;;;;;;3.93;2.90;;;11.80;99.90;;;12.30;99.98;99202.19;5062196;28;20492;-74
2022/04/28 08:47:06;;;;;;;5.80;3.43;;;11.90;99.90;;;12.39;96.47;99199.34;5062533;28;20444;-75
2022/04/28 08:49:36;;;;;;;3.47;2.93;;;12.00;99.70;;;12.49;96.11;99202.63;5060694;28;20950;-75
2022/04/28 08:52:07;;;;;;;3.60;2.57;;;12.00;99.50;;;12.57;94.98;99207.81;5063111;28;20531;-74
2022/04/28 08:54:40;;;;;;;3.50;2.97;;;12.10;99.50;;;12.63;90.71;99201.88;5062273;28;20451;-75
2022/04/28 08:57:11;;;;;;;5.13;2.93;;;12.10;97.40;;;12.71;89.30;99198.41;5061740;28;20476;-75
2022/04/28 08:59:46;;;;;;;4.73;2.70;;;12.20;98.10;;;12.78;84.65;99209.03;5061563;28;20440;-74
2022/04/28 09:02:16;;;;;;;4.37;3.00;;;12.40;97.00;;;12.85;84.00;99205.53;5061258;28;20579;-74
2022/04/28 09:04:45;;;;;;;3.90;2.60;;;12.50;96.90;;;12.97;81.51;99211.22;5063546;28;20567;-75
2022/04/28 09:07:15;;;;;;;4.00;2.73;;;12.60;96.20;;;13.07;80.96;99214.44;5060236;28;20527;-75
2022/04/28 09:09:45;;;;;;;2.37;2.17;;;12.80;96.20;;;13.18;75.29;99206.19;5060915;28;20526;-75
2022/04/28 09:12:15;;;;;;;4.30;2.90;;;12.90;94.40;;;13.26;73.05;99207.97;5061159;28;20875;-75
2022/04/28 09:14:47;;;;;;;3.60;2.67;;;13.00;94.20;;;13.34;71.74;99206.06;5062969;28;20469;-74
2022/04/28 09:17:18;;;;;;;3.80;3.00;;;13.00;93.90;;;13.45;73.34;99208.28;5060732;28;20840;-74
2022/04/28 09:19:47;;;;;;;3.07;2.77;;;13.10;94.30;;;13.54;74.75;99209.84;5059939;28;20445;-74
2022/04/28 09:22:17;;;;;;;4.07;3.20;;;13.20;94.80;;;13.64;72.29;99208.81;5061223;28;20450;-74
2022/04/28 09:24:48;;;;;;;3.83;2.80;;;13.30;94.10;;;13.77;75.11;99211.63;5062166;28;20875;-75
2022/04/28 09:27:18;;;;;;;5.13;2.90;;;13.40;94.90;;;13.85;70.13;99204.47;5060886;28;21013;-75
2022/04/28 09:29:52;;;;;;;2.37;2.17;;;13.50;93.50;;;13.98;70.08;99204.69;5061852;28;20878;-74
2022/04/28 09:32:24;;;;;;;4.17;3.20;;;13.70;93.60;;;14.08;68.00;99201.78;5059797;28;20436;-75
2022/04/28 09:35:16;;;;;;;4.03;3.13;;;13.80;93.10;;;14.19;68.57;99205.78;5061625;28;20902;-74
2022/04/28 09:37:45;;;;;;;5.03;3.30;;;13.90;93.40;;;14.24;67.47;99201.59;5061457;28;20438;-75
2022/04/28 09:43:04;;;;;;;5.63;3.00;;;14.00;93.50;;;14.40;66.06;99208.53;5062084;28;20455;-74
2022/04/28 09:45:39;;;;;;;9.57;3.60;;;14.10;92.70;;;14.45;64.77;99203.53;5061592;28;20987;-74
2022/04/28 09:48:09;;;;;;;4.07;2.30;;;14.10;92.10;;;14.52;64.68;99196.53;5060712;28;20907;-74
2022/04/28 09:50:40;;;;;;;4.43;3.00;;;14.20;92.30;;;14.59;64.68;99194.81;5060373;28;20470;-74
2022/04/28 09:53:09;;;;;;;3.60;2.80;;;14.30;92.30;;;14.63;63.15;99195.25;5060681;28;20487;-74
2022/04/28 09:55:41;;;;;;;2.90;2.50;;;14.30;91.80;;;14.67;65.52;99196.50;5059532;28;20965;-74
2022/04/28 09:58:13;;;;;;;6.67;3.00;;;14.30;92.80;;;14.71;64.41;99189.88;5060567;28;20432;-75
2022/04/28 10:00:44;;;;;;;8.70;3.43;;;14.30;92.30;;;14.77;62.72;99195.22;5060283;28;20456;-75
2022/04/28 10:03:15;;;;;;;3.27;2.67;;;14.40;91.70;;;14.82;63.50;99202.56;5061236;28;20441;-74
2022/04/28 10:05:46;;;;;;;3.00;2.60;;;14.40;92.00;;;14.83;61.80;99194.47;5060115;28;20481;-75
2022/04/28 10:08:15;;;;;;;5.90;3.30;;;14.50;91.50;;;14.88;61.10;99192.13;5060753;28;20523;-75
2022/04/28 10:10:46;;;;;;;4.13;2.87;;;14.50;91.30;;;14.91;61.99;99186.47;5060957;28;20452;-75
2022/04/28 10:13:19;;;;;;;4.43;2.97;;;14.50;91.60;;;14.96;59.15;99201.72;5058160;28;20463;-75
2022/04/28 10:15:55;;;;;;;3.20;2.83;;;14.60;90.50;;;15.01;57.80;99194.88;5061571;28;20564;-75
2022/04/28 10:18:33;;;;;;;4.03;2.90;;;14.70;90.00;;;15.04;57.22;99196.31;5063192;28;20452;-75
2022/04/28 10:21:07;;;;;;;3.53;2.43;;;14.70;89.80;;;15.12;57.72;99198.84;5062092;28;20466;-75
2022/04/28 10:32:55;;;;;;;3.50;2.77;;;15.00;90.70;;;15.31;55.71;99192.13;5061418;28;20456;-75
2022/04/28 10:35:44;;;;;;;7.10;2.63;;;14.90;88.90;;;15.33;55.67;99190.13;5064993;28;21067;-75
2022/04/28 10:38:23;;;;;;;4.57;2.43;;;14.80;89.00;;;15.33;55.66;99183.03;5064740;28;20538;-75
2022/04/28 10:41:01;;;;;;;4.30;2.70;;;14.80;88.70;;;15.39;53.09;99192.00;5065596;28;20443;-75
2022/04/28 10:43:39;;;;;;;3.07;2.67;;;15.00;86.40;;;15.43;52.30;99186.16;5064107;28;22730;-74
2022/04/28 10:46:33;;;;;;;4.83;3.20;;;15.10;85.70;;;15.46;52.79;99177.06;5066570;28;20494;-75
2022/04/28 10:49:06;;;;;;;3.33;2.67;;;15.10;86.20;;;15.48;53.79;99175.06;5065437;28;20440;-75
2022/04/28 10:51:36;;;;;;;3.60;2.67;;;15.00;87.20;;;15.52;50.22;99174.50;5063058;28;20509;-75
2022/04/28 10:54:10;;;;;;;4.63;3.00;;;15.20;83.50;;;15.57;51.21;99182.66;5063311;28;20491;-75
2022/04/28 10:57:00;;;;;;;3.20;2.60;;;15.10;85.00;;;15.63;52.17;99183.72;5064276;28;20538;-74
2022/04/28 10:59:39;;;;;;;7.83;2.53;;;15.20;86.00;;;15.66;52.16;99179.88;5063567;28;20457;-75
2022/04/28 11:02:49;;;;;;;3.57;2.40;;;15.20;85.70;;;15.69;48.00;99164.47;5063430;28;20484;-75
2022/04/28 11:05:48;;;;;;;3.50;2.30;;;15.20;81.60;;;15.79;49.13;99166.81;5064010;28;21212;-75
2022/04/28 11:08:36;;;;;;;3.73;2.30;;;15.40;82.60;;;15.87;50.19;99177.19;5015305;28;20461;-75
2022/04/28 11:11:11;;;;;;;4.00;3.37;;;15.50;83.80;;;15.96;48.34;99168.13;5060059;28;20444;-75
2022/04/28 11:13:56;;;;;;;4.43;2.80;;;15.60;81.90;;;16.02;48.63;99165.53;5060346;28;20473;-74
2022/04/28 11:16:30;;;;;;;6.10;2.60;;;15.60;82.10;;;16.11;49.13;99171.44;5060345;28;20444;-75